Time;durP1;ratioP1;P1;durP2;ratioP2;P2;SDS_P1;SDS_P2;PMS_P1;PMS_P2;Temp;Humidity;BMP_temperature;BMP_pressure;BME280_temperature;BME280_humidity;BME280_pressure;Samples;Min_cycle;Max_cycle;Signal;HPM_P1;HPM_P2
2022/05/01 00:02:13;;;;;;;7.20;2.13;;;;;;;9.64;66.52;101714.25;5988301;28;20371;-68
2022/05/01 00:05:08;;;;;;;6.27;2.47;;;;;;;9.56;66.55;101712.19;5985298;28;20039;-66
2022/05/01 00:08:04;;;;;;;4.57;2.00;;;;;;;9.51;66.43;101706.38;5980629;28;20122;-66
2022/05/01 00:11:00;;;;;;;4.03;2.13;;;;;;;9.52;66.71;101702.78;5983972;28;20110;-68
2022/05/01 00:13:57;;;;;;;4.43;2.15;;;;;;;9.53;66.29;101704.47;5985359;28;20102;-68
2022/05/01 00:16:52;;;;;;;5.25;2.20;;;;;;;9.46;65.71;101711.19;5985121;28;20475;-67
2022/05/01 00:19:47;;;;;;;6.10;2.17;;;;;;;9.47;65.61;101712.88;5983144;28;20035;-67
2022/05/01 00:22:42;;;;;;;4.50;1.83;;;;;;;9.46;65.94;101705.03;5983556;28;20158;-67
2022/05/01 00:25:41;;;;;;;3.77;1.80;;;;;;;9.47;66.40;101710.22;5988399;28;20727;-66
2022/05/01 00:28:38;;;;;;;4.32;2.00;;;;;;;9.43;66.22;101708.75;5981161;28;20366;-68
2022/05/01 00:31:33;;;;;;;3.55;1.85;;;;;;;9.40;66.07;101701.03;5980793;28;20035;-67
2022/05/01 00:37:42;;;;;;;4.60;1.60;;;;;;;9.40;65.47;101711.63;5990561;28;20422;-66
2022/05/01 00:40:37;;;;;;;4.27;2.13;;;;;;;9.40;65.46;101716.91;5984452;28;20032;-67
2022/05/01 00:43:53;;;;;;;5.55;1.80;;;;;;;9.39;64.99;101714.41;5978918;28;20079;-67
2022/05/01 00:46:51;;;;;;;5.05;1.70;;;;;;;9.50;64.82;101715.28;5988492;28;20030;-69
2022/05/01 00:49:46;;;;;;;4.55;1.83;;;;;;;9.49;63.96;101716.25;5978944;28;20546;-66
2022/05/01 00:52:42;;;;;;;3.47;1.53;;;;;;;9.85;63.92;101711.78;5988880;28;20046;-68
2022/05/01 00:55:37;;;;;;;4.37;2.00;;;;;;;9.65;63.71;101715.13;5983279;28;20035;-68
2022/05/01 00:58:33;;;;;;;4.53;2.00;;;;;;;9.65;63.36;101713.28;5982406;28;20078;-69
2022/05/01 01:01:28;;;;;;;4.20;1.85;;;;;;;9.59;63.17;101695.22;5998156;28;20364;-69
2022/05/01 01:04:25;;;;;;;2.90;2.20;;;;;;;9.42;64.45;101699.13;5993075;28;20043;-67
2022/05/01 01:07:20;;;;;;;5.20;1.65;;;;;;;9.43;64.52;101707.94;5992097;28;20062;-67
2022/05/01 01:10:15;;;;;;;3.60;1.60;;;;;;;9.38;64.03;101704.75;5984744;28;20397;-68
2022/05/01 01:13:12;;;;;;;5.67;1.63;;;;;;;9.38;65.07;101713.53;5993287;28;20022;-68
2022/05/01 01:16:11;;;;;;;6.78;1.80;;;;;;;9.44;64.93;101707.81;5987620;28;20314;-68
2022/05/01 01:19:08;;;;;;;4.50;1.90;;;;;;;9.56;64.60;101700.75;5982874;28;20074;-69
2022/05/01 01:22:04;;;;;;;3.70;2.00;;;;;;;9.52;64.73;101710.72;5982404;28;20087;-67
2022/05/01 01:25:00;;;;;;;3.35;1.60;;;;;;;9.53;64.60;101706.28;6002371;28;20483;-69
2022/05/01 01:27:59;;;;;;;4.53;2.03;;;;;;;9.44;64.24;101701.66;5992617;28;20499;-69
2022/05/01 01:34:14;;;;;;;4.22;1.70;;;;;;;9.30;65.52;101709.78;5992006;28;20051;-67
2022/05/01 01:37:11;;;;;;;3.35;1.73;;;;;;;9.38;65.15;101710.91;5985861;28;20043;-67
2022/05/01 01:40:07;;;;;;;2.80;1.42;;;;;;;9.35;65.84;101704.97;5989010;28;20027;-67
2022/05/01 01:43:04;;;;;;;3.95;1.98;;;;;;;9.48;65.07;101711.91;5986302;28;20082;-69
2022/05/01 01:46:00;;;;;;;5.70;2.30;;;;;;;9.27;65.74;101713.50;5983344;28;20035;-68
2022/05/01 01:48:55;;;;;;;3.72;2.05;;;;;;;9.20;66.50;101716.72;5993424;28;20044;-68
2022/05/01 01:51:50;;;;;;;5.10;1.80;;;;;;;9.17;66.89;101717.78;5989898;28;20388;-68
2022/05/01 01:54:46;;;;;;;4.93;2.17;;;;;;;9.13;67.21;101707.53;5992864;28;20454;-68
2022/05/01 01:57:41;;;;;;;4.83;1.90;;;;;;;9.13;67.54;101718.94;5980919;28;20042;-68
2022/05/01 02:00:37;;;;;;;4.97;1.70;;;;;;;9.12;67.08;101719.94;5981004;28;20060;-69
2022/05/01 02:03:33;;;;;;;4.87;1.67;;;;;;;9.04;67.88;101719.63;5983758;28;20035;-69
2022/05/01 02:06:28;;;;;;;4.43;2.10;;;;;;;8.98;67.31;101713.00;5981710;28;20475;-66
2022/05/01 02:09:24;;;;;;;4.30;2.10;;;;;;;8.91;67.88;101714.38;5990291;28;20039;-67
2022/05/01 02:12:20;;;;;;;4.37;1.80;;;;;;;8.95;67.85;101709.72;5981629;28;20039;-68
2022/05/01 02:15:15;;;;;;;4.60;2.00;;;;;;;8.98;67.67;101707.69;5988123;28;20038;-69
2022/05/01 02:18:11;;;;;;;3.80;1.75;;;;;;;9.02;67.20;101705.69;5985035;28;20085;-67
2022/05/01 02:24:20;;;;;;;3.92;1.67;;;;;;;9.07;66.70;101708.00;5992609;28;20390;-66
2022/05/01 02:27:16;;;;;;;3.40;1.90;;;;;;;9.14;67.15;101709.22;5985005;28;20031;-67
2022/05/01 02:30:11;;;;;;;4.72;1.75;;;;;;;8.99;67.77;101722.59;5994421;28;20039;-67
2022/05/01 02:33:07;;;;;;;5.78;2.28;;;;;;;8.85;67.89;101724.56;5987011;28;20039;-69
2022/05/01 02:36:05;;;;;;;3.83;1.75;;;;;;;8.83;68.48;101726.47;5986883;28;20478;-69
2022/05/01 02:39:00;;;;;;;4.53;1.92;;;;;;;8.81;67.99;101729.22;5981068;28;20091;-68
2022/05/01 02:41:56;;;;;;;4.03;1.50;;;;;;;8.71;68.14;101716.78;5981281;28;20428;-68
2022/05/01 02:44:51;;;;;;;4.93;1.80;;;;;;;8.73;68.60;101723.63;5985261;28;20439;-66
2022/05/01 02:47:46;;;;;;;4.33;1.73;;;;;;;8.64;68.62;101715.53;5980840;28;20040;-66
2022/05/01 02:50:42;;;;;;;4.97;2.20;;;;;;;8.66;69.00;101718.91;5980227;28;20090;-67
2022/05/01 02:53:38;;;;;;;4.17;1.57;;;;;;;8.59;68.87;101715.00;5983590;28;20035;-69
2022/05/01 02:56:33;;;;;;;3.67;1.85;;;;;;;8.71;68.51;101712.34;5984433;28;20035;-68
2022/05/01 02:59:29;;;;;;;3.63;1.88;;;;;;;8.82;68.43;101699.19;5980728;28;20443;-68
2022/05/01 03:02:24;;;;;;;4.70;1.70;;;;;;;9.00;67.60;101699.63;5982561;28;20043;-66
2022/05/01 03:05:19;;;;;;;4.77;1.80;;;;;;;8.94;68.04;101694.81;5985111;28;20283;-69
2022/05/01 03:08:14;;;;;;;4.20;1.90;;;;;;;8.77;68.58;101689.91;5984245;28;20038;-67
2022/05/01 03:11:10;;;;;;;4.68;2.40;;;;;;;8.69;69.01;101689.59;5979594;28;20026;-67
2022/05/01 03:14:09;;;;;;;4.47;1.77;;;;;;;8.64;68.89;101695.19;5987708;28;20031;-68
2022/05/01 03:17:04;;;;;;;7.85;2.50;;;;;;;8.70;69.45;101693.91;5982936;28;20177;-67
2022/05/01 03:23:14;;;;;;;4.25;2.15;;;;;;;9.02;69.49;101681.88;5984783;28;20275;-67
2022/05/01 03:26:09;;;;;;;5.10;2.30;;;;;;;8.99;69.02;101685.56;5979812;28;20459;-67
2022/05/01 03:29:04;;;;;;;6.63;1.90;;;;;;;8.93;70.59;101693.13;5983079;28;20035;-66
2022/05/01 03:32:00;;;;;;;3.83;1.90;;;;;;;8.87;69.96;101697.06;5979385;28;20058;-68
2022/05/01 03:34:56;;;;;;;5.13;1.75;;;;;;;8.84;70.13;101688.47;5979996;28;20038;-68
2022/05/01 03:37:52;;;;;;;6.03;3.00;;;;;;;8.92;69.67;101694.91;5980239;28;20039;-67
2022/05/01 03:40:47;;;;;;;3.93;2.10;;;;;;;8.76;70.56;101704.06;5982322;28;20038;-67
2022/05/01 03:43:43;;;;;;;4.85;2.15;;;;;;;8.76;71.32;101704.91;5984652;28;20279;-68
2022/05/01 03:46:41;;;;;;;6.40;2.65;;;;;;;8.61;71.70;101699.88;5979512;28;20039;-67
2022/05/01 03:49:36;;;;;;;3.90;2.00;;;;;;;8.57;72.02;101698.41;5979856;28;20122;-69
2022/05/01 03:52:35;;;;;;;7.13;2.13;;;;;;;8.57;71.79;101687.81;5986533;28;20042;-67
2022/05/01 03:55:31;;;;;;;5.60;2.33;;;;;;;9.12;70.96;101689.97;5981391;28;20027;-67
2022/05/01 03:58:29;;;;;;;3.60;2.13;;;;;;;8.96;70.75;101692.91;5987114;28;20041;-68
2022/05/01 04:01:26;;;;;;;9.48;2.45;;;;;;;8.79;71.71;101690.63;5979822;28;20031;-67
2022/05/01 04:04:21;;;;;;;7.45;3.53;;;;;;;8.72;72.14;101689.38;5979879;28;20051;-68
2022/05/01 04:07:16;;;;;;;5.57;2.65;;;;;;;8.69;72.57;101700.19;5987774;28;20113;-68
2022/05/01 04:10:12;;;;;;;5.57;3.13;;;;;;;8.65;72.64;101691.63;5983627;28;20058;-69
2022/05/01 04:13:08;;;;;;;7.90;3.67;;;;;;;8.63;72.97;101692.69;5993334;28;20106;-68
2022/05/01 04:16:04;;;;;;;7.50;4.32;;;;;;;8.61;73.08;101702.53;5980867;28;20036;-66
2022/05/01 04:18:59;;;;;;;9.05;3.75;;;;;;;8.65;72.98;101691.63;5979384;28;20027;-68
2022/05/01 04:21:55;;;;;;;7.90;3.13;;;;;;;8.97;72.00;101697.22;5979102;28;20054;-68
2022/05/01 04:24:50;;;;;;;6.57;3.80;;;;;;;8.84;72.31;101701.72;5981092;28;20487;-67
2022/05/01 04:27:54;;;;;;;6.87;3.93;;;;;;;8.91;72.82;101708.25;5986131;28;20051;-67
2022/05/01 04:30:50;;;;;;;7.28;3.38;;;;;;;8.85;73.33;101698.13;5975474;28;20435;-68
2022/05/01 04:33:45;;;;;;;5.13;2.60;;;;;;;8.81;73.21;101708.06;5988545;28;20035;-66
2022/05/01 04:36:41;;;;;;;6.13;2.93;;;;;;;8.53;73.78;101700.44;5983635;28;20046;-66
2022/05/01 04:39:36;;;;;;;8.75;2.67;;;;;;;8.49;74.73;101708.66;5986552;28;20054;-68
2022/05/01 04:42:31;;;;;;;5.23;2.93;;;;;;;8.47;75.17;101713.22;5993838;28;20043;-68
2022/05/01 04:45:28;;;;;;;5.07;2.53;;;;;;;8.46;75.38;101701.81;5988673;28;20043;-68
2022/05/01 04:48:24;;;;;;;6.80;2.85;;;;;;;8.54;75.25;101709.19;5987582;28;20039;-67
2022/05/01 04:51:20;;;;;;;5.32;2.55;;;;;;;8.52;74.75;101711.94;5982778;28;20031;-67
2022/05/01 04:54:15;;;;;;;6.40;2.57;;;;;;;8.65;75.01;101711.91;5984786;28;20583;-68
2022/05/01 04:57:12;;;;;;;6.97;2.77;;;;;;;8.46;74.37;101708.88;5992680;28;20030;-68
2022/05/01 05:00:09;;;;;;;11.10;3.20;;;;;;;8.36;75.30;101717.47;5989720;28;20058;-68
2022/05/01 05:03:04;;;;;;;7.78;2.95;;;;;;;8.34;75.14;101723.81;5991268;28;20058;-66
2022/05/01 05:06:01;;;;;;;5.18;2.50;;;;;;;8.45;75.50;101725.72;5983144;28;20430;-66
2022/05/01 05:12:10;;;;;;;6.18;2.28;;;;;;;8.46;75.39;101724.72;5983616;28;20046;-68
2022/05/01 05:15:10;;;;;;;5.53;2.87;;;;;;;8.47;75.71;101724.66;5982958;28;20459;-69
2022/05/01 05:18:05;;;;;;;7.85;2.70;;;;;;;8.62;75.93;101722.69;5982280;28;20039;-68
2022/05/01 05:21:00;;;;;;;6.45;2.88;;;;;;;8.63;74.92;101721.75;5982067;28;20027;-68
2022/05/01 05:23:56;;;;;;;6.37;3.13;;;;;;;8.57;75.04;101730.13;5982585;28;20047;-67
2022/05/01 05:26:52;;;;;;;13.93;5.05;;;;;;;8.53;75.40;101728.66;5982542;28;20073;-67
2022/05/01 05:29:47;;;;;;;8.13;3.03;;;;;;;8.53;75.81;101733.94;5986334;28;20502;-68
2022/05/01 05:32:43;;;;;;;7.68;2.85;;;;;;;8.60;75.10;101732.53;5982658;28;20038;-68
2022/05/01 05:35:38;;;;;;;6.20;2.73;;;;;;;8.51;76.06;101739.31;5982738;28;20031;-66
2022/05/01 05:38:33;;;;;;;5.90;2.80;;;;;;;8.62;75.80;101750.00;5991578;28;20391;-66
2022/05/01 05:41:29;;;;;;;5.30;3.33;;;;;;;8.68;75.24;101743.44;5982534;28;20032;-68
2022/05/01 05:44:24;;;;;;;14.97;4.30;;;;;;;8.51;75.96;101747.25;5986275;28;20077;-68
2022/05/01 05:47:19;;;;;;;9.07;3.00;;;;;;;8.74;75.78;101753.56;5988279;28;20039;-67
2022/05/01 05:50:16;;;;;;;12.90;3.40;;;;;;;8.70;75.55;101760.03;5982107;28;20043;-69
2022/05/01 05:53:11;;;;;;;9.73;3.20;;;;;;;8.55;76.39;101755.81;5987402;28;20034;-68
2022/05/01 05:56:08;;;;;;;6.93;3.23;;;;;;;8.54;77.52;101756.75;5981847;28;20110;-67
2022/05/01 05:59:03;;;;;;;6.03;3.05;;;;;;;8.46;78.37;101769.66;5982972;28;20034;-66
2022/05/01 06:01:59;;;;;;;7.00;3.25;;;;;;;8.31;79.04;101766.31;5982215;28;20027;-66
2022/05/01 06:04:54;;;;;;;6.95;3.40;;;;;;;8.42;79.83;101763.78;5986067;28;20038;-66
2022/05/01 06:07:49;;;;;;;5.10;3.03;;;;;;;8.30;80.19;101762.81;5982469;28;20043;-68
2022/05/01 06:10:45;;;;;;;5.90;3.50;;;;;;;8.45;79.38;101778.56;5981337;28;20031;-66
2022/05/01 06:13:40;;;;;;;9.75;3.13;;;;;;;8.43;79.82;101769.88;5992319;28;20049;-68
2022/05/01 06:16:37;;;;;;;12.40;3.80;;;;;;;8.67;79.63;101778.78;5977064;28;20089;-66
2022/05/01 06:19:33;;;;;;;7.85;3.28;;;;;;;8.61;78.79;101763.34;5988753;28;20039;-68
2022/05/01 06:22:28;;;;;;;7.73;3.10;;;;;;;8.63;78.54;101767.56;5984144;28;20042;-68
2022/05/01 06:25:23;;;;;;;6.10;3.40;;;;;;;8.76;78.18;101760.44;5991699;28;20040;-67
2022/05/01 06:28:19;;;;;;;11.27;3.47;;;;;;;8.86;77.96;101757.97;5986957;28;20031;-69
2022/05/01 06:31:15;;;;;;;8.63;3.67;;;;;;;8.77;77.86;101763.94;5979319;28;20278;-66
2022/05/01 06:34:11;;;;;;;7.57;4.07;;;;;;;8.74;78.09;101758.88;5980112;28;20122;-67
2022/05/01 06:37:06;;;;;;;6.28;3.25;;;;;;;8.80;78.31;101763.72;5996174;28;20475;-68
2022/05/01 06:40:03;;;;;;;9.33;3.57;;;;;;;8.97;77.08;101750.13;5980159;28;20051;-67
2022/05/01 06:42:59;;;;;;;6.72;3.17;;;;;;;9.09;77.31;101765.13;5983909;28;20044;-67
2022/05/01 06:45:54;;;;;;;7.55;3.60;;;;;;;9.04;76.72;101759.31;5980995;28;20471;-68
2022/05/01 06:48:50;;;;;;;6.90;3.40;;;;;;;8.97;77.19;101766.00;5981854;28;20093;-68
2022/05/01 06:51:45;;;;;;;9.03;3.47;;;;;;;8.92;77.46;101770.78;5979782;28;20047;-68
2022/05/01 06:54:40;;;;;;;6.47;3.40;;;;;;;8.99;77.32;101779.97;5989824;28;20063;-67
2022/05/01 06:57:36;;;;;;;6.60;3.77;;;;;;;9.02;77.27;101771.81;5990870;28;20039;-66
2022/05/01 07:00:31;;;;;;;9.50;3.60;;;;;;;9.19;76.86;101771.44;5995291;28;20094;-68
2022/05/01 07:03:26;;;;;;;9.57;4.10;;;;;;;9.31;76.00;101767.06;5993058;28;20031;-68
2022/05/01 07:06:22;;;;;;;9.93;3.30;;;;;;;9.45;75.06;101757.16;5990356;28;20043;-66
2022/05/01 07:09:17;;;;;;;6.50;3.20;;;;;;;10.04;74.95;101759.75;5992700;28;20058;-67
2022/05/01 07:12:12;;;;;;;8.90;3.47;;;;;;;10.28;72.58;101773.81;5991822;28;20401;-66
2022/05/01 07:15:08;;;;;;;7.27;2.93;;;;;;;10.79;70.75;101768.91;5979065;28;20023;-68
2022/05/01 07:18:04;;;;;;;8.15;3.55;;;;;;;10.89;69.92;101771.69;5986219;28;20027;-67
2022/05/01 07:20:59;;;;;;;6.53;3.13;;;;;;;10.99;69.38;101764.66;5979496;28;20463;-66
2022/05/01 07:23:55;;;;;;;8.17;4.00;;;;;;;10.39;70.72;101771.19;5985310;28;20030;-69
2022/05/01 07:26:50;;;;;;;7.97;3.63;;;;;;;10.40;70.37;101772.88;5980121;28;20037;-68
2022/05/01 07:29:45;;;;;;;7.80;4.07;;;;;;;10.59;70.21;101769.63;5978768;28;20101;-67
2022/05/01 07:32:41;;;;;;;8.55;3.33;;;;;;;10.45;70.75;101776.03;5978601;28;20023;-68
2022/05/01 07:35:37;;;;;;;9.13;3.50;;;;;;;10.37;71.68;101773.13;5975194;28;20110;-69
2022/05/01 07:38:32;;;;;;;7.60;3.45;;;;;;;10.25;72.57;101778.50;5967673;28;20067;-66
2022/05/01 07:41:28;;;;;;;9.47;3.63;;;;;;;10.25;72.59;101779.34;5977837;28;20042;-68
2022/05/01 07:44:23;;;;;;;8.52;3.58;;;;;;;10.40;72.29;101770.22;5981685;28;20037;-67
2022/05/01 07:47:19;;;;;;;8.67;3.93;;;;;;;10.27;73.12;101772.16;5977771;28;20467;-68
2022/05/01 07:50:14;;;;;;;7.83;3.63;;;;;;;10.48;72.51;101769.63;5979975;28;20472;-68
2022/05/01 07:53:09;;;;;;;6.82;3.38;;;;;;;10.70;72.04;101775.81;5984092;28;20463;-68
2022/05/01 07:56:05;;;;;;;7.53;3.80;;;;;;;10.81;70.93;101768.78;5979176;28;20180;-67
2022/05/01 07:59:00;;;;;;;9.53;3.53;;;;;;;10.89;70.03;101771.69;5976132;28;20038;-68
2022/05/01 08:01:55;;;;;;;6.93;3.90;;;;;;;11.18;69.84;101764.88;5980288;28;20170;-68
2022/05/01 08:04:51;;;;;;;6.80;3.63;;;;;;;11.22;69.13;101771.63;5980365;28;20038;-68
2022/05/01 08:07:46;;;;;;;8.37;3.80;;;;;;;11.57;68.89;101777.56;5978173;28;20050;-67
2022/05/01 08:10:41;;;;;;;8.23;3.43;;;;;;;11.86;66.49;101762.72;5985310;28;20039;-68
2022/05/01 08:13:37;;;;;;;8.57;3.65;;;;;;;12.31;65.06;101773.13;5979063;28;20042;-67
2022/05/01 08:16:32;;;;;;;9.00;3.80;;;;;;;12.08;65.29;101767.09;5966490;28;20047;-67
2022/05/01 08:22:41;;;;;;;6.28;3.50;;;;;;;12.45;64.09;101768.28;5977280;28;20023;-67
2022/05/01 08:25:37;;;;;;;7.53;3.30;;;;;;;12.65;63.74;101771.88;5978838;28;20495;-69
2022/05/01 08:28:33;;;;;;;7.15;3.20;;;;;;;12.77;62.78;101765.50;5988383;28;20120;-67
2022/05/01 08:31:29;;;;;;;10.30;3.45;;;;;;;13.82;59.37;101767.53;5981709;28;20372;-68
2022/05/01 08:34:24;;;;;;;5.23;3.07;;;;;;;13.69;58.63;101766.97;5980016;28;20055;-67
2022/05/01 08:37:19;;;;;;;9.37;3.47;;;;;;;13.41;60.15;101776.63;5981584;28;20131;-67
2022/05/01 08:40:15;;;;;;;9.33;2.93;;;;;;;13.78;57.71;101775.97;5977670;28;20110;-66
2022/05/01 08:43:13;;;;;;;4.97;2.85;;;;;;;13.59;57.54;101768.78;5994413;28;20026;-68
2022/05/01 08:46:18;;;;;;;6.90;3.33;;;;;;;14.13;55.84;101778.88;5977538;29;20043;-67
2022/05/01 08:49:17;;;;;;;7.50;2.90;;;;;;;14.22;54.27;101767.31;5985865;28;20464;-68
2022/05/01 08:52:13;;;;;;;7.57;2.80;;;;;;;13.99;54.69;101768.66;5979870;28;20066;-68
2022/05/01 08:55:08;;;;;;;5.75;2.60;;;;;;;14.37;54.59;101768.59;5977819;28;20039;-67
2022/05/01 08:58:04;;;;;;;6.85;3.10;;;;;;;13.65;56.05;101758.41;5978177;28;20031;-69
2022/05/01 09:00:59;;;;;;;5.15;2.70;;;;;;;13.93;54.85;101772.72;5976946;29;20027;-68
2022/05/01 09:03:55;;;;;;;6.47;2.97;;;;;;;14.41;53.66;101761.13;5978897;28;20042;-67
2022/05/01 09:06:51;;;;;;;6.07;2.58;;;;;;;14.02;54.80;101768.38;5978901;28;20430;-68
2022/05/01 09:09:46;;;;;;;6.53;2.88;;;;;;;14.38;54.14;101774.78;5991794;28;20038;-66
2022/05/01 09:12:51;;;;;;;7.17;3.63;;;;;;;13.96;54.00;101768.91;5988126;28;20546;-68
2022/05/01 09:15:47;;;;;;;6.38;2.80;;;;;;;14.69;51.72;101766.38;5983076;28;20427;-67
2022/05/01 09:18:44;;;;;;;7.03;2.70;;;;;;;14.97;51.45;101769.91;5990706;28;20059;-67
2022/05/01 09:21:50;;;;;;;8.70;2.85;;;;;;;15.49;49.51;101769.19;5982245;28;20028;-67
2022/05/01 09:24:52;;;;;;;7.43;2.95;;;;;;;14.92;51.79;101760.66;5982884;28;20356;-68
2022/05/01 09:27:49;;;;;;;7.75;2.70;;;;;;;14.71;52.23;101782.25;5981651;28;20050;-68
2022/05/01 09:30:44;;;;;;;5.95;2.97;;;;;;;15.08;50.80;101767.06;5985008;28;20070;-67
2022/05/01 09:33:40;;;;;;;10.13;2.90;;;;;;;15.40;50.26;101767.41;5982769;28;20522;-68
2022/05/01 09:36:36;;;;;;;6.83;2.70;;;;;;;15.18;51.66;101773.16;5982442;28;20042;-68
2022/05/01 09:39:32;;;;;;;5.18;2.83;;;;;;;15.67;48.87;101771.03;5982712;28;20035;-67
2022/05/01 09:42:33;;;;;;;7.25;2.65;;;;;;;15.84;48.03;101772.88;5990416;28;20031;-67
2022/05/01 09:45:32;;;;;;;5.88;2.80;;;;;;;15.48;47.16;101769.34;5982247;28;20094;-68
2022/05/01 09:48:27;;;;;;;4.75;2.25;;;;;;;15.61;46.49;101763.59;5982082;28;20085;-68
2022/05/01 09:51:23;;;;;;;4.87;2.63;;;;;;;15.44;48.38;101767.91;5981683;28;20784;-67
2022/05/01 09:54:21;;;;;;;7.75;3.05;;;;;;;14.18;50.59;101766.78;5989045;28;20059;-67
2022/05/01 09:57:23;;;;;;;5.75;2.58;;;;;;;14.46;49.92;101761.56;5983140;28;20158;-68
2022/05/01 10:00:36;;;;;;;5.85;3.05;;;;;;;14.48;48.17;101767.59;5986503;28;20097;-68
2022/05/01 10:03:34;;;;;;;4.53;2.70;;;;;;;14.68;47.46;101764.69;5987192;28;20479;-67
2022/05/01 10:06:31;;;;;;;5.07;2.25;;;;;;;14.43;46.83;101769.84;5991329;28;20038;-67
2022/05/01 10:09:31;;;;;;;8.50;2.70;;;;;;;14.46;46.50;101764.22;5975116;28;20503;-68
2022/05/01 10:12:28;;;;;;;6.07;2.75;;;;;;;14.75;46.77;101767.63;5986877;28;20039;-66
2022/05/01 10:15:23;;;;;;;7.15;2.58;;;;;;;15.29;45.04;101756.94;5978564;28;20058;-68
2022/05/01 10:18:19;;;;;;;6.13;2.80;;;;;;;14.48;47.14;101755.09;5989437;28;20043;-67
2022/05/01 10:21:14;;;;;;;4.97;2.45;;;;;;;15.07;46.21;101760.00;5973650;28;20042;-68
2022/05/01 10:24:10;;;;;;;6.97;2.95;;;;;;;14.67;45.74;101751.50;5982466;28;20039;-66
2022/05/01 10:27:24;;;;;;;7.40;3.78;;;;;;;13.87;47.96;101751.94;5966230;28;20035;-68
2022/05/01 10:33:44;;;;;;;6.80;2.88;;;;;;;13.99;47.86;101736.63;5983334;28;20062;-69
2022/05/01 10:36:51;;;;;;;6.93;2.45;;;;;;;13.89;48.00;101741.97;5986758;28;20458;-69
2022/05/01 10:39:46;;;;;;;;;;;;;;;14.26;47.44;101748.25;5989054;28;20491;-66
2022/05/01 10:42:46;;;;;;;5.97;3.17;;;;;;;15.12;45.58;101731.00;5980432;28;19929;-67
2022/05/01 10:45:43;;;;;;;4.50;2.42;;;;;;;15.03;45.36;101726.56;5990520;28;20045;-68
2022/05/01 10:48:39;;;;;;;6.95;3.50;;;;;;;15.00;44.97;101726.03;5992807;28;20035;-67
2022/05/01 10:51:41;;;;;;;14.85;7.60;;;;;;;14.65;46.37;101726.75;5978963;28;20518;-69
2022/05/01 10:54:38;;;;;;;18.40;10.48;;;;;;;14.70;45.49;101724.50;5986874;28;20114;-67
2022/05/01 10:57:34;;;;;;;5.07;2.25;;;;;;;14.78;45.34;101724.63;5990654;28;20041;-68
2022/05/01 11:00:29;;;;;;;4.82;2.22;;;;;;;15.56;43.70;101723.97;5981323;28;20034;-68
2022/05/01 11:03:27;;;;;;;5.10;3.13;;;;;;;15.81;43.85;101722.34;5984568;28;20047;-67
2022/05/01 11:06:22;;;;;;;5.70;2.85;;;;;;;15.10;44.78;101722.31;5979298;28;20043;-67
2022/05/01 11:09:19;;;;;;;8.37;2.87;;;;;;;15.68;43.36;101724.59;5984683;28;20046;-66
2022/05/01 11:12:17;;;;;;;12.88;6.18;;;;;;;15.88;43.83;101715.38;5989682;28;20600;-66
2022/05/01 11:15:25;;;;;;;7.35;2.72;;;;;;;16.50;41.83;101708.88;5974921;28;20039;-69
2022/05/01 11:18:28;;;;;;;6.07;2.40;;;;;;;17.23;40.69;101701.97;5983702;28;20074;-68
2022/05/01 11:21:24;;;;;;;7.22;2.83;;;;;;;16.04;42.17;101707.44;5983512;28;20042;-67
2022/05/01 11:24:42;;;;;;;4.43;2.50;;;;;;;16.26;43.88;101706.94;5986333;28;20063;-68
2022/05/01 11:27:52;;;;;;;15.80;7.15;;;;;;;16.98;42.52;101692.22;5990576;28;20038;-68
2022/05/01 11:30:47;;;;;;;9.30;3.50;;;;;;;16.53;42.23;101703.25;5982240;28;20070;-68
2022/05/01 11:34:14;;;;;;;8.90;3.47;;;;;;;15.75;43.94;101686.34;5979207;28;20504;-68
2022/05/01 11:37:09;;;;;;;6.28;2.75;;;;;;;15.52;43.83;101689.69;5979749;28;20517;-68
2022/05/01 11:40:15;;;;;;;6.70;3.00;;;;;;;16.00;43.27;101684.69;5988928;28;20041;-68
2022/05/01 11:43:17;;;;;;;7.03;3.40;;;;;;;16.29;41.95;101673.66;5991580;28;20078;-68
2022/05/01 11:46:19;;;;;;;7.43;2.95;;;;;;;15.59;42.76;101674.69;5972617;28;20051;-67
2022/05/01 11:49:14;;;;;;;6.70;2.58;;;;;;;15.45;43.53;101674.22;5990294;28;20035;-67
2022/05/01 11:52:11;;;;;;;5.93;2.83;;;;;;;15.22;45.25;101674.84;5982622;28;20058;-68
2022/05/01 11:55:08;;;;;;;6.07;2.90;;;;;;;15.85;44.24;101667.53;5976985;28;20282;-68
2022/05/01 12:04:36;;;;;;;5.22;2.40;;;;;;;16.51;40.08;101657.88;5988515;28;20079;-69
2022/05/01 12:07:32;;;;;;;4.85;2.00;;;;;;;16.02;40.17;101674.66;5983834;28;20117;-67
2022/05/01 12:10:27;;;;;;;4.65;2.13;;;;;;;16.51;39.75;101665.91;5974105;28;20035;-67
2022/05/01 12:13:25;;;;;;;5.13;2.42;;;;;;;16.72;39.63;101668.19;5979832;28;20035;-69
2022/05/01 12:16:24;;;;;;;3.97;1.90;;;;;;;17.03;37.59;101663.06;5983780;28;20428;-68
2022/05/01 12:19:20;;;;;;;5.00;2.35;;;;;;;17.25;37.21;101647.19;5977954;28;20051;-67
2022/05/01 12:22:17;;;;;;;5.30;2.03;;;;;;;17.32;37.13;101651.88;5992131;28;20418;-67
2022/05/01 12:25:14;;;;;;;3.65;2.08;;;;;;;17.46;35.79;101654.75;5970229;28;20486;-68
2022/05/01 12:28:11;;;;;;;4.95;2.10;;;;;;;17.94;36.39;101647.69;5980938;28;20039;-69
2022/05/01 12:31:06;;;;;;;3.10;1.73;;;;;;;18.22;35.04;101639.06;5979135;28;20395;-68
2022/05/01 12:34:01;;;;;;;5.95;2.00;;;;;;;17.93;35.09;101643.34;5983695;28;20074;-67
2022/05/01 12:36:58;;;;;;;3.03;2.00;;;;;;;18.15;35.87;101646.13;5993470;28;20438;-68
2022/05/01 12:43:50;;;;;;;4.85;2.20;;;;;;;18.48;33.43;101649.53;5981063;28;20492;-67
2022/05/01 12:46:53;;;;;;;5.38;2.00;;;;;;;18.87;32.06;101653.06;5988251;28;20043;-69
2022/05/01 12:49:54;;;;;;;5.35;2.10;;;;;;;18.94;32.94;101648.63;5981665;28;20429;-64
2022/05/01 12:52:55;;;;;;;6.47;2.03;;;;;;;18.56;33.47;101643.31;5993360;28;20058;-66
2022/05/01 12:55:50;;;;;;;6.28;2.35;;;;;;;18.09;32.43;101651.34;5980103;28;20034;-66
2022/05/01 12:58:46;;;;;;;3.47;2.10;;;;;;;17.55;33.10;101639.53;5992172;28;20046;-68
2022/05/01 13:01:42;;;;;;;4.78;1.88;;;;;;;17.83;33.91;101641.66;5979212;28;20035;-65
2022/05/01 13:04:38;;;;;;;7.30;2.30;;;;;;;17.50;33.72;101636.47;5987464;28;20084;-65
2022/05/01 13:07:36;;;;;;;4.30;1.92;;;;;;;17.72;33.89;101636.63;5980671;28;20118;-65
2022/05/01 13:10:32;;;;;;;6.35;2.40;;;;;;;18.30;33.39;101639.03;5987369;28;20031;-65
2022/05/01 13:13:27;;;;;;;5.50;2.53;;;;;;;18.21;31.83;101628.47;5986107;28;20066;-66
2022/05/01 13:16:25;;;;;;;5.93;2.03;;;;;;;18.44;32.63;101621.34;5978683;28;20088;-66
2022/05/01 13:19:21;;;;;;;3.83;2.08;;;;;;;18.10;33.65;101621.63;5992855;28;20027;-66
2022/05/01 13:22:16;;;;;;;5.50;2.15;;;;;;;18.59;31.87;101621.47;5976411;28;20036;-67
2022/05/01 13:25:13;;;;;;;4.32;2.10;;;;;;;18.13;34.44;101625.81;5981143;28;20371;-65
2022/05/01 13:28:08;;;;;;;3.97;1.73;;;;;;;17.79;34.97;101623.41;5983153;28;20035;-66
2022/05/01 13:31:03;;;;;;;5.17;2.00;;;;;;;18.00;35.38;101615.63;5987362;28;20043;-65
2022/05/01 13:33:59;;;;;;;4.03;2.27;;;;;;;18.01;33.74;101613.78;5983294;28;20019;-66
2022/05/01 13:36:54;;;;;;;6.17;2.63;;;;;;;17.78;34.59;101608.28;5990271;28;20043;-66
2022/05/01 13:46:17;;;;;;;4.78;2.15;;;;;;;18.18;34.34;101602.00;5989176;28;20031;-66
2022/05/01 13:49:13;;;;;;;5.33;1.97;;;;;;;18.14;35.83;101595.28;5984429;28;20035;-64
2022/05/01 13:52:09;;;;;;;6.90;2.53;;;;;;;18.00;35.81;101598.69;5984079;28;20366;-66
2022/05/01 13:55:04;;;;;;;3.92;1.98;;;;;;;18.47;35.60;101596.81;5985178;28;20043;-66
2022/05/01 13:58:00;;;;;;;4.35;2.00;;;;;;;17.87;35.71;101599.22;5994652;28;20130;-66
2022/05/01 14:00:56;;;;;;;5.77;2.30;;;;;;;16.76;37.76;101589.19;5989841;28;20039;-68
2022/05/01 14:03:51;;;;;;;5.10;2.10;;;;;;;17.21;37.08;101586.03;5980227;28;20283;-65
2022/05/01 14:06:46;;;;;;;5.80;2.10;;;;;;;16.90;37.09;101577.81;5990914;28;20048;-66
2022/05/01 14:09:41;;;;;;;6.07;3.00;;;;;;;17.30;37.04;101571.63;5987111;28;20309;-65
2022/05/01 14:12:37;;;;;;;4.70;2.33;;;;;;;17.65;37.34;101571.28;5988524;28;20034;-66
2022/05/01 14:15:34;;;;;;;4.43;2.08;;;;;;;17.93;37.32;101566.34;5987566;28;20454;-65
2022/05/01 14:18:30;;;;;;;5.20;2.20;;;;;;;17.79;37.25;101572.41;5984917;28;20090;-67
2022/05/01 14:21:26;;;;;;;5.60;2.20;;;;;;;17.68;36.90;101568.25;5982531;28;20031;-65
2022/05/01 14:24:21;;;;;;;4.90;2.07;;;;;;;18.24;35.95;101569.06;5988593;28;21444;-66
2022/05/01 14:27:18;;;;;;;6.05;2.17;;;;;;;17.95;36.53;101563.47;5986689;28;20118;-67